sensor_id;sensor_type;location;lat;lon;timestamp;temperature;humidity
35647;DHT22;28680;45.642;13.756;2023-12-28T00:01:21;11.10;99.90
35647;DHT22;28680;45.642;13.756;2023-12-28T00:03:47;11.20;99.90
35647;DHT22;28680;45.642;13.756;2023-12-28T00:06:13;11.20;99.90
35647;DHT22;28680;45.642;13.756;2023-12-28T00:08:40;11.20;99.90
35647;DHT22;28680;45.642;13.756;2023-12-28T00:11:06;11.20;99.90
35647;DHT22;28680;45.642;13.756;2023-12-28T00:13:31;11.20;99.90
35647;DHT22;28680;45.642;13.756;2023-12-28T00:15:57;11.20;99.90
35647;DHT22;28680;45.642;13.756;2023-12-28T00:18:23;11.20;99.90
35647;DHT22;28680;45.642;13.756;2023-12-28T00:20:49;11.20;99.90
35647;DHT22;28680;45.642;13.756;2023-12-28T00:23:15;11.20;99.90
35647;DHT22;28680;45.642;13.756;2023-12-28T00:25:41;11.20;99.90
35647;DHT22;28680;45.642;13.756;2023-12-28T00:28:07;11.20;99.90
35647;DHT22;28680;45.642;13.756;2023-12-28T00:30:32;11.20;99.90
35647;DHT22;28680;45.642;13.756;2023-12-28T00:32:59;11.20;99.90
35647;DHT22;28680;45.642;13.756;2023-12-28T00:35:24;11.20;99.90
35647;DHT22;28680;45.642;13.756;2023-12-28T00:37:50;11.20;99.90
35647;DHT22;28680;45.642;13.756;2023-12-28T00:40:16;11.30;99.90
35647;DHT22;28680;45.642;13.756;2023-12-28T00:42:42;11.20;99.90
35647;DHT22;28680;45.642;13.756;2023-12-28T00:45:09;11.20;99.90
35647;DHT22;28680;45.642;13.756;2023-12-28T00:47:36;11.10;99.90
35647;DHT22;28680;45.642;13.756;2023-12-28T00:50:01;11.00;99.90
35647;DHT22;28680;45.642;13.756;2023-12-28T00:52:27;11.00;99.90
35647;DHT22;28680;45.642;13.756;2023-12-28T00:54:53;11.00;99.90
35647;DHT22;28680;45.642;13.756;2023-12-28T00:57:19;11.10;99.90
35647;DHT22;28680;45.642;13.756;2023-12-28T00:59:44;11.00;99.90
35647;DHT22;28680;45.642;13.756;2023-12-28T01:02:10;11.00;99.90
35647;DHT22;28680;45.642;13.756;2023-12-28T01:04:36;11.10;99.90
35647;DHT22;28680;45.642;13.756;2023-12-28T01:07:02;11.00;99.90
35647;DHT22;28680;45.642;13.756;2023-12-28T01:09:30;11.00;99.90
35647;DHT22;28680;45.642;13.756;2023-12-28T01:11:58;11.00;99.90
35647;DHT22;28680;45.642;13.756;2023-12-28T01:14:24;11.00;99.90
35647;DHT22;28680;45.642;13.756;2023-12-28T01:16:50;11.00;99.90
35647;DHT22;28680;45.642;13.756;2023-12-28T01:19:16;11.00;99.90
35647;DHT22;28680;45.642;13.756;2023-12-28T01:21:41;11.00;99.90
35647;DHT22;28680;45.642;13.756;2023-12-28T01:24:07;11.10;99.90
35647;DHT22;28680;45.642;13.756;2023-12-28T01:26:33;11.10;99.90
35647;DHT22;28680;45.642;13.756;2023-12-28T01:29:00;11.10;99.90
35647;DHT22;28680;45.642;13.756;2023-12-28T01:31:30;11.20;99.90
35647;DHT22;28680;45.642;13.756;2023-12-28T01:33:56;11.20;99.90
35647;DHT22;28680;45.642;13.756;2023-12-28T01:36:22;11.20;99.90
35647;DHT22;28680;45.642;13.756;2023-12-28T01:38:48;11.20;99.90
35647;DHT22;28680;45.642;13.756;2023-12-28T01:41:14;11.20;99.90
35647;DHT22;28680;45.642;13.756;2023-12-28T01:43:41;11.20;99.90
35647;DHT22;28680;45.642;13.756;2023-12-28T01:46:10;11.20;99.90
35647;DHT22;28680;45.642;13.756;2023-12-28T01:48:38;11.20;99.90
35647;DHT22;28680;45.642;13.756;2023-12-28T01:51:04;11.20;99.90
35647;DHT22;28680;45.642;13.756;2023-12-28T01:53:30;11.20;99.90
35647;DHT22;28680;45.642;13.756;2023-12-28T01:55:56;11.20;99.90
35647;DHT22;28680;45.642;13.756;2023-12-28T01:58:23;11.20;99.90
35647;DHT22;28680;45.642;13.756;2023-12-28T02:00:49;11.20;99.90
35647;DHT22;28680;45.642;13.756;2023-12-28T02:03:16;11.20;99.90
35647;DHT22;28680;45.642;13.756;2023-12-28T02:05:42;11.20;99.90
35647;DHT22;28680;45.642;13.756;2023-12-28T02:08:08;11.20;99.90
35647;DHT22;28680;45.642;13.756;2023-12-28T02:10:33;11.20;99.90
35647;DHT22;28680;45.642;13.756;2023-12-28T02:12:59;11.20;99.90
35647;DHT22;28680;45.642;13.756;2023-12-28T02:15:25;11.20;99.90
35647;DHT22;28680;45.642;13.756;2023-12-28T02:18:02;11.20;99.90
35647;DHT22;28680;45.642;13.756;2023-12-28T02:20:31;11.20;99.90
35647;DHT22;28680;45.642;13.756;2023-12-28T02:22:58;11.20;99.90
35647;DHT22;28680;45.642;13.756;2023-12-28T02:25:24;11.20;99.90
35647;DHT22;28680;45.642;13.756;2023-12-28T02:27:50;11.20;99.90
35647;DHT22;28680;45.642;13.756;2023-12-28T02:30:17;11.20;99.90
35647;DHT22;28680;45.642;13.756;2023-12-28T02:37:58;11.10;99.90
35647;DHT22;28680;45.642;13.756;2023-12-28T02:40:24;11.10;99.90
35647;DHT22;28680;45.642;13.756;2023-12-28T02:42:52;11.10;99.90
35647;DHT22;28680;45.642;13.756;2023-12-28T02:45:18;11.10;99.90
35647;DHT22;28680;45.642;13.756;2023-12-28T02:47:44;11.00;99.90
35647;DHT22;28680;45.642;13.756;2023-12-28T02:50:10;11.00;99.90
35647;DHT22;28680;45.642;13.756;2023-12-28T02:52:36;11.00;99.90
35647;DHT22;28680;45.642;13.756;2023-12-28T02:55:02;11.10;99.90
35647;DHT22;28680;45.642;13.756;2023-12-28T02:57:28;11.10;99.90
35647;DHT22;28680;45.642;13.756;2023-12-28T02:59:54;11.10;99.90
35647;DHT22;28680;45.642;13.756;2023-12-28T03:02:22;11.10;99.90
35647;DHT22;28680;45.642;13.756;2023-12-28T03:04:48;11.10;99.90
35647;DHT22;28680;45.642;13.756;2023-12-28T03:07:14;11.10;99.90
35647;DHT22;28680;45.642;13.756;2023-12-28T03:09:40;11.10;99.90
35647;DHT22;28680;45.642;13.756;2023-12-28T03:12:06;11.10;99.90
35647;DHT22;28680;45.642;13.756;2023-12-28T03:14:32;11.10;99.90
35647;DHT22;28680;45.642;13.756;2023-12-28T03:16:58;11.20;99.90
35647;DHT22;28680;45.642;13.756;2023-12-28T03:19:23;11.20;99.90
35647;DHT22;28680;45.642;13.756;2023-12-28T03:21:49;11.20;99.90
35647;DHT22;28680;45.642;13.756;2023-12-28T03:24:15;11.10;99.90
35647;DHT22;28680;45.642;13.756;2023-12-28T03:26:41;11.10;99.90
35647;DHT22;28680;45.642;13.756;2023-12-28T03:29:08;11.10;99.90
35647;DHT22;28680;45.642;13.756;2023-12-28T03:31:38;11.10;99.90
35647;DHT22;28680;45.642;13.756;2023-12-28T03:34:04;11.20;99.90
35647;DHT22;28680;45.642;13.756;2023-12-28T03:36:29;11.20;99.90
35647;DHT22;28680;45.642;13.756;2023-12-28T03:38:55;11.20;99.90
35647;DHT22;28680;45.642;13.756;2023-12-28T03:41:21;11.20;99.90
35647;DHT22;28680;45.642;13.756;2023-12-28T03:43:49;11.20;99.90
35647;DHT22;28680;45.642;13.756;2023-12-28T03:46:14;11.10;99.90
35647;DHT22;28680;45.642;13.756;2023-12-28T03:48:40;11.10;99.90
35647;DHT22;28680;45.642;13.756;2023-12-28T03:51:06;11.20;99.90
35647;DHT22;28680;45.642;13.756;2023-12-28T03:53:32;11.20;99.90
35647;DHT22;28680;45.642;13.756;2023-12-28T03:55:58;11.20;99.90
35647;DHT22;28680;45.642;13.756;2023-12-28T03:58:25;11.10;99.90
35647;DHT22;28680;45.642;13.756;2023-12-28T04:00:54;11.20;99.90
35647;DHT22;28680;45.642;13.756;2023-12-28T04:03:20;11.20;99.90
35647;DHT22;28680;45.642;13.756;2023-12-28T04:05:47;11.20;99.90
35647;DHT22;28680;45.642;13.756;2023-12-28T04:08:12;11.20;99.90
35647;DHT22;28680;45.642;13.756;2023-12-28T04:10:39;11.20;99.90
35647;DHT22;28680;45.642;13.756;2023-12-28T04:13:04;11.20;99.90
35647;DHT22;28680;45.642;13.756;2023-12-28T04:15:30;11.20;99.90
35647;DHT22;28680;45.642;13.756;2023-12-28T04:17:57;11.20;99.90
35647;DHT22;28680;45.642;13.756;2023-12-28T04:20:23;11.20;99.90
35647;DHT22;28680;45.642;13.756;2023-12-28T04:22:50;11.20;99.90
35647;DHT22;28680;45.642;13.756;2023-12-28T04:25:16;11.20;99.90
35647;DHT22;28680;45.642;13.756;2023-12-28T04:27:42;11.20;99.90
35647;DHT22;28680;45.642;13.756;2023-12-28T04:30:11;11.20;99.90
35647;DHT22;28680;45.642;13.756;2023-12-28T04:32:37;11.10;99.90
35647;DHT22;28680;45.642;13.756;2023-12-28T04:35:03;11.10;99.90
35647;DHT22;28680;45.642;13.756;2023-12-28T04:37:29;11.00;99.90
35647;DHT22;28680;45.642;13.756;2023-12-28T04:39:57;11.10;99.90
35647;DHT22;28680;45.642;13.756;2023-12-28T04:42:22;11.10;99.90
35647;DHT22;28680;45.642;13.756;2023-12-28T04:44:48;11.00;99.90
35647;DHT22;28680;45.642;13.756;2023-12-28T04:47:14;11.00;99.90
35647;DHT22;28680;45.642;13.756;2023-12-28T04:49:40;11.10;99.90
35647;DHT22;28680;45.642;13.756;2023-12-28T04:52:06;11.00;99.90
35647;DHT22;28680;45.642;13.756;2023-12-28T04:54:31;11.10;99.90
35647;DHT22;28680;45.642;13.756;2023-12-28T04:56:59;11.10;99.90
35647;DHT22;28680;45.642;13.756;2023-12-28T04:59:25;11.10;99.90
35647;DHT22;28680;45.642;13.756;2023-12-28T05:01:51;11.00;99.90
35647;DHT22;28680;45.642;13.756;2023-12-28T05:04:17;11.00;99.90
35647;DHT22;28680;45.642;13.756;2023-12-28T05:06:43;11.00;99.90
35647;DHT22;28680;45.642;13.756;2023-12-28T05:09:08;11.10;99.90
35647;DHT22;28680;45.642;13.756;2023-12-28T05:11:34;11.20;99.90
35647;DHT22;28680;45.642;13.756;2023-12-28T05:14:00;11.30;99.90
35647;DHT22;28680;45.642;13.756;2023-12-28T05:16:26;11.20;99.90
35647;DHT22;28680;45.642;13.756;2023-12-28T05:18:51;11.20;99.90
35647;DHT22;28680;45.642;13.756;2023-12-28T05:21:18;11.20;99.90
35647;DHT22;28680;45.642;13.756;2023-12-28T05:23:44;11.20;99.90
35647;DHT22;28680;45.642;13.756;2023-12-28T05:26:10;11.20;99.90
35647;DHT22;28680;45.642;13.756;2023-12-28T05:28:36;11.20;99.90
35647;DHT22;28680;45.642;13.756;2023-12-28T05:31:01;11.10;99.90
35647;DHT22;28680;45.642;13.756;2023-12-28T05:33:28;11.10;99.90
35647;DHT22;28680;45.642;13.756;2023-12-28T05:35:54;11.10;99.90
35647;DHT22;28680;45.642;13.756;2023-12-28T05:38:19;11.10;99.90
35647;DHT22;28680;45.642;13.756;2023-12-28T05:40:45;11.10;99.90
35647;DHT22;28680;45.642;13.756;2023-12-28T05:43:11;11.10;99.90
35647;DHT22;28680;45.642;13.756;2023-12-28T05:45:37;11.10;99.90
35647;DHT22;28680;45.642;13.756;2023-12-28T05:48:03;11.10;99.90
35647;DHT22;28680;45.642;13.756;2023-12-28T05:50:29;11.10;99.90
35647;DHT22;28680;45.642;13.756;2023-12-28T05:52:54;11.10;99.90
35647;DHT22;28680;45.642;13.756;2023-12-28T05:55:21;11.10;99.90
35647;DHT22;28680;45.642;13.756;2023-12-28T05:57:46;11.10;99.90
35647;DHT22;28680;45.642;13.756;2023-12-28T06:00:14;11.10;99.90
35647;DHT22;28680;45.642;13.756;2023-12-28T06:02:40;11.10;99.90
35647;DHT22;28680;45.642;13.756;2023-12-28T06:05:07;11.10;99.90
35647;DHT22;28680;45.642;13.756;2023-12-28T06:07:33;11.10;99.90
35647;DHT22;28680;45.642;13.756;2023-12-28T06:09:59;11.10;99.90
35647;DHT22;28680;45.642;13.756;2023-12-28T06:12:25;11.10;99.90
35647;DHT22;28680;45.642;13.756;2023-12-28T06:14:51;11.10;99.90
35647;DHT22;28680;45.642;13.756;2023-12-28T06:17:16;11.10;99.90
35647;DHT22;28680;45.642;13.756;2023-12-28T06:19:44;11.10;99.90
35647;DHT22;28680;45.642;13.756;2023-12-28T06:22:10;11.10;99.90
35647;DHT22;28680;45.642;13.756;2023-12-28T06:24:39;11.10;99.90
35647;DHT22;28680;45.642;13.756;2023-12-28T06:27:06;11.10;99.90
35647;DHT22;28680;45.642;13.756;2023-12-28T06:29:31;11.10;99.90
35647;DHT22;28680;45.642;13.756;2023-12-28T06:31:57;11.10;99.90
35647;DHT22;28680;45.642;13.756;2023-12-28T06:34:23;11.10;99.90
35647;DHT22;28680;45.642;13.756;2023-12-28T06:36:49;11.00;99.90
35647;DHT22;28680;45.642;13.756;2023-12-28T06:39:15;11.00;99.90
35647;DHT22;28680;45.642;13.756;2023-12-28T06:41:41;11.00;99.90
35647;DHT22;28680;45.642;13.756;2023-12-28T06:44:06;11.00;99.90
35647;DHT22;28680;45.642;13.756;2023-12-28T06:46:32;11.00;99.90
35647;DHT22;28680;45.642;13.756;2023-12-28T06:48:58;11.10;99.90
35647;DHT22;28680;45.642;13.756;2023-12-28T06:51:24;11.00;99.90
35647;DHT22;28680;45.642;13.756;2023-12-28T06:53:51;10.90;99.90
35647;DHT22;28680;45.642;13.756;2023-12-28T06:56:17;11.00;99.90
35647;DHT22;28680;45.642;13.756;2023-12-28T06:58:42;11.00;99.90
35647;DHT22;28680;45.642;13.756;2023-12-28T07:01:08;11.00;99.90
35647;DHT22;28680;45.642;13.756;2023-12-28T07:03:34;11.00;99.90
35647;DHT22;28680;45.642;13.756;2023-12-28T07:06:01;11.00;99.90
35647;DHT22;28680;45.642;13.756;2023-12-28T07:08:27;11.00;99.90
35647;DHT22;28680;45.642;13.756;2023-12-28T07:10:53;10.90;99.90
35647;DHT22;28680;45.642;13.756;2023-12-28T07:13:19;10.90;99.90
35647;DHT22;28680;45.642;13.756;2023-12-28T07:15:44;10.90;99.90
35647;DHT22;28680;45.642;13.756;2023-12-28T07:18:10;10.90;99.90
35647;DHT22;28680;45.642;13.756;2023-12-28T07:20:36;10.90;99.90
35647;DHT22;28680;45.642;13.756;2023-12-28T07:23:02;10.90;99.90
35647;DHT22;28680;45.642;13.756;2023-12-28T07:25:28;10.90;99.90
35647;DHT22;28680;45.642;13.756;2023-12-28T07:27:54;10.90;99.90
35647;DHT22;28680;45.642;13.756;2023-12-28T07:30:20;10.90;99.90
35647;DHT22;28680;45.642;13.756;2023-12-28T07:32:46;10.90;99.90
35647;DHT22;28680;45.642;13.756;2023-12-28T07:35:12;10.90;99.90
35647;DHT22;28680;45.642;13.756;2023-12-28T07:37:38;11.00;99.90
35647;DHT22;28680;45.642;13.756;2023-12-28T07:40:04;11.10;99.90
35647;DHT22;28680;45.642;13.756;2023-12-28T07:42:30;11.10;99.90
35647;DHT22;28680;45.642;13.756;2023-12-28T07:44:56;11.10;99.90
35647;DHT22;28680;45.642;13.756;2023-12-28T07:47:21;11.10;99.90
35647;DHT22;28680;45.642;13.756;2023-12-28T07:49:47;11.10;99.90
35647;DHT22;28680;45.642;13.756;2023-12-28T07:52:13;11.10;99.90
35647;DHT22;28680;45.642;13.756;2023-12-28T07:54:39;11.10;99.90
35647;DHT22;28680;45.642;13.756;2023-12-28T07:57:05;11.10;99.90
35647;DHT22;28680;45.642;13.756;2023-12-28T07:59:30;11.20;99.90
35647;DHT22;28680;45.642;13.756;2023-12-28T08:01:57;11.20;99.90
35647;DHT22;28680;45.642;13.756;2023-12-28T08:04:22;11.10;99.90
35647;DHT22;28680;45.642;13.756;2023-12-28T08:06:48;11.20;99.90
35647;DHT22;28680;45.642;13.756;2023-12-28T08:09:14;11.10;99.90
35647;DHT22;28680;45.642;13.756;2023-12-28T08:11:40;11.10;99.90
35647;DHT22;28680;45.642;13.756;2023-12-28T08:14:06;11.10;99.90
35647;DHT22;28680;45.642;13.756;2023-12-28T08:16:31;11.20;99.90
35647;DHT22;28680;45.642;13.756;2023-12-28T08:18:57;11.10;99.90
35647;DHT22;28680;45.642;13.756;2023-12-28T08:21:23;11.20;99.90
35647;DHT22;28680;45.642;13.756;2023-12-28T08:23:49;11.20;99.90
35647;DHT22;28680;45.642;13.756;2023-12-28T08:26:15;11.20;99.90
35647;DHT22;28680;45.642;13.756;2023-12-28T08:28:41;11.20;99.90
35647;DHT22;28680;45.642;13.756;2023-12-28T08:31:06;11.20;99.90
35647;DHT22;28680;45.642;13.756;2023-12-28T08:33:34;11.30;99.90
35647;DHT22;28680;45.642;13.756;2023-12-28T08:36:03;11.20;99.90
35647;DHT22;28680;45.642;13.756;2023-12-28T08:38:29;11.20;99.90
35647;DHT22;28680;45.642;13.756;2023-12-28T08:40:55;11.30;99.90
35647;DHT22;28680;45.642;13.756;2023-12-28T08:43:21;11.30;99.90
35647;DHT22;28680;45.642;13.756;2023-12-28T08:45:46;11.20;99.90
35647;DHT22;28680;45.642;13.756;2023-12-28T08:48:12;11.20;99.90
35647;DHT22;28680;45.642;13.756;2023-12-28T08:50:38;11.20;99.90
35647;DHT22;28680;45.642;13.756;2023-12-28T08:53:04;11.20;99.90
35647;DHT22;28680;45.642;13.756;2023-12-28T08:55:30;11.20;99.90
35647;DHT22;28680;45.642;13.756;2023-12-28T08:57:55;11.20;99.90
35647;DHT22;28680;45.642;13.756;2023-12-28T09:00:21;11.20;99.90
35647;DHT22;28680;45.642;13.756;2023-12-28T09:02:47;11.20;99.90
35647;DHT22;28680;45.642;13.756;2023-12-28T09:05:13;11.20;99.90
35647;DHT22;28680;45.642;13.756;2023-12-28T09:07:39;11.20;99.90
35647;DHT22;28680;45.642;13.756;2023-12-28T09:10:12;11.20;99.90
35647;DHT22;28680;45.642;13.756;2023-12-28T09:12:39;11.20;99.90
35647;DHT22;28680;45.642;13.756;2023-12-28T09:15:06;11.20;99.90
35647;DHT22;28680;45.642;13.756;2023-12-28T09:17:33;11.30;99.90
35647;DHT22;28680;45.642;13.756;2023-12-28T09:19:59;11.30;99.90
35647;DHT22;28680;45.642;13.756;2023-12-28T09:22:25;11.30;99.90
35647;DHT22;28680;45.642;13.756;2023-12-28T09:24:51;11.30;99.90
35647;DHT22;28680;45.642;13.756;2023-12-28T09:27:16;11.40;99.90
35647;DHT22;28680;45.642;13.756;2023-12-28T09:29:42;11.40;99.90
35647;DHT22;28680;45.642;13.756;2023-12-28T09:32:08;11.50;99.90
35647;DHT22;28680;45.642;13.756;2023-12-28T09:34:34;11.40;99.90
35647;DHT22;28680;45.642;13.756;2023-12-28T09:37:00;11.50;99.90
35647;DHT22;28680;45.642;13.756;2023-12-28T09:39:25;11.50;99.90
35647;DHT22;28680;45.642;13.756;2023-12-28T09:42:04;11.50;99.90
35647;DHT22;28680;45.642;13.756;2023-12-28T09:44:32;11.50;99.90
35647;DHT22;28680;45.642;13.756;2023-12-28T09:47:02;11.50;99.90
35647;DHT22;28680;45.642;13.756;2023-12-28T09:49:28;11.60;99.90
35647;DHT22;28680;45.642;13.756;2023-12-28T09:51:55;11.60;99.90
35647;DHT22;28680;45.642;13.756;2023-12-28T09:54:21;11.60;99.90
35647;DHT22;28680;45.642;13.756;2023-12-28T09:56:47;11.60;99.90
35647;DHT22;28680;45.642;13.756;2023-12-28T09:59:14;11.60;99.90
35647;DHT22;28680;45.642;13.756;2023-12-28T10:01:42;11.60;99.90
35647;DHT22;28680;45.642;13.756;2023-12-28T10:04:08;11.60;99.90
35647;DHT22;28680;45.642;13.756;2023-12-28T10:06:35;11.60;99.90
35647;DHT22;28680;45.642;13.756;2023-12-28T10:09:01;11.60;99.90
35647;DHT22;28680;45.642;13.756;2023-12-28T10:11:27;11.60;99.90
35647;DHT22;28680;45.642;13.756;2023-12-28T10:13:53;11.50;99.90
35647;DHT22;28680;45.642;13.756;2023-12-28T10:16:19;11.50;99.90
35647;DHT22;28680;45.642;13.756;2023-12-28T10:18:45;11.50;99.90
35647;DHT22;28680;45.642;13.756;2023-12-28T10:21:11;11.50;99.90
35647;DHT22;28680;45.642;13.756;2023-12-28T10:23:40;11.60;99.90
35647;DHT22;28680;45.642;13.756;2023-12-28T10:26:06;11.60;99.90
35647;DHT22;28680;45.642;13.756;2023-12-28T10:28:35;11.60;99.90
35647;DHT22;28680;45.642;13.756;2023-12-28T10:31:02;11.60;99.90
35647;DHT22;28680;45.642;13.756;2023-12-28T10:33:37;11.60;99.90
35647;DHT22;28680;45.642;13.756;2023-12-28T10:36:05;11.60;99.90
35647;DHT22;28680;45.642;13.756;2023-12-28T10:38:34;11.60;99.90
35647;DHT22;28680;45.642;13.756;2023-12-28T10:41:06;11.60;99.90
35647;DHT22;28680;45.642;13.756;2023-12-28T10:43:45;11.60;99.90
35647;DHT22;28680;45.642;13.756;2023-12-28T10:46:18;11.70;99.90
35647;DHT22;28680;45.642;13.756;2023-12-28T10:51:36;11.70;99.90
35647;DHT22;28680;45.642;13.756;2023-12-28T10:56:49;11.80;99.90
35647;DHT22;28680;45.642;13.756;2023-12-28T11:02:38;11.90;99.90
35647;DHT22;28680;45.642;13.756;2023-12-28T11:05:05;11.90;99.90
35647;DHT22;28680;45.642;13.756;2023-12-28T11:07:32;11.90;99.90
35647;DHT22;28680;45.642;13.756;2023-12-28T11:13:02;11.90;99.90
35647;DHT22;28680;45.642;13.756;2023-12-28T11:15:31;12.00;99.90
35647;DHT22;28680;45.642;13.756;2023-12-28T11:17:57;12.00;99.90
35647;DHT22;28680;45.642;13.756;2023-12-28T11:20:25;12.00;99.90
35647;DHT22;28680;45.642;13.756;2023-12-28T11:22:56;12.10;99.90
35647;DHT22;28680;45.642;13.756;2023-12-28T11:25:22;12.10;99.90
35647;DHT22;28680;45.642;13.756;2023-12-28T11:27:48;12.00;99.90
35647;DHT22;28680;45.642;13.756;2023-12-28T11:30:14;12.10;99.90
35647;DHT22;28680;45.642;13.756;2023-12-28T11:32:43;12.10;99.90
35647;DHT22;28680;45.642;13.756;2023-12-28T11:35:13;12.10;99.90
35647;DHT22;28680;45.642;13.756;2023-12-28T11:37:51;12.00;99.90
35647;DHT22;28680;45.642;13.756;2023-12-28T11:40:22;12.20;99.90
35647;DHT22;28680;45.642;13.756;2023-12-28T11:42:53;12.20;99.90
35647;DHT22;28680;45.642;13.756;2023-12-28T11:45:22;12.20;99.90
35647;DHT22;28680;45.642;13.756;2023-12-28T11:48:01;12.20;99.90
35647;DHT22;28680;45.642;13.756;2023-12-28T11:50:27;12.20;99.90
35647;DHT22;28680;45.642;13.756;2023-12-28T11:52:53;12.20;99.90
35647;DHT22;28680;45.642;13.756;2023-12-28T11:55:22;12.20;99.90
35647;DHT22;28680;45.642;13.756;2023-12-28T11:57:51;12.20;99.90
35647;DHT22;28680;45.642;13.756;2023-12-28T12:00:18;12.20;99.90
35647;DHT22;28680;45.642;13.756;2023-12-28T12:02:46;12.20;99.90
35647;DHT22;28680;45.642;13.756;2023-12-28T12:05:17;12.20;99.90
35647;DHT22;28680;45.642;13.756;2023-12-28T12:07:43;12.20;99.90
35647;DHT22;28680;45.642;13.756;2023-12-28T12:10:14;12.20;99.90
35647;DHT22;28680;45.642;13.756;2023-12-28T12:12:40;12.10;99.90
35647;DHT22;28680;45.642;13.756;2023-12-28T12:15:06;12.10;99.90
35647;DHT22;28680;45.642;13.756;2023-12-28T12:17:36;12.00;99.90
35647;DHT22;28680;45.642;13.756;2023-12-28T12:20:03;12.00;99.90
35647;DHT22;28680;45.642;13.756;2023-12-28T12:22:45;11.90;99.90
35647;DHT22;28680;45.642;13.756;2023-12-28T12:25:14;12.00;99.90
35647;DHT22;28680;45.642;13.756;2023-12-28T12:28:05;11.90;99.90
35647;DHT22;28680;45.642;13.756;2023-12-28T12:30:31;11.90;99.90
35647;DHT22;28680;45.642;13.756;2023-12-28T12:33:00;11.90;99.90
35647;DHT22;28680;45.642;13.756;2023-12-28T12:35:27;11.90;99.90
35647;DHT22;28680;45.642;13.756;2023-12-28T12:37:54;12.00;99.90
35647;DHT22;28680;45.642;13.756;2023-12-28T12:40:20;12.00;99.90
35647;DHT22;28680;45.642;13.756;2023-12-28T12:43:00;12.00;99.90
35647;DHT22;28680;45.642;13.756;2023-12-28T12:45:26;12.00;99.90
35647;DHT22;28680;45.642;13.756;2023-12-28T12:47:52;12.00;99.90
35647;DHT22;28680;45.642;13.756;2023-12-28T12:50:18;12.30;99.90
35647;DHT22;28680;45.642;13.756;2023-12-28T12:52:43;11.90;99.90
35647;DHT22;28680;45.642;13.756;2023-12-28T12:55:14;11.90;99.90
35647;DHT22;28680;45.642;13.756;2023-12-28T12:57:40;11.90;99.90
35647;DHT22;28680;45.642;13.756;2023-12-28T13:00:08;11.90;99.90
35647;DHT22;28680;45.642;13.756;2023-12-28T13:02:35;12.00;99.90
35647;DHT22;28680;45.642;13.756;2023-12-28T13:05:04;12.00;99.90
35647;DHT22;28680;45.642;13.756;2023-12-28T13:07:31;12.00;99.90
35647;DHT22;28680;45.642;13.756;2023-12-28T13:09:57;12.10;99.90
35647;DHT22;28680;45.642;13.756;2023-12-28T13:12:23;12.10;99.90
35647;DHT22;28680;45.642;13.756;2023-12-28T13:14:50;12.20;99.90
35647;DHT22;28680;45.642;13.756;2023-12-28T13:17:16;12.20;99.90
35647;DHT22;28680;45.642;13.756;2023-12-28T13:19:42;12.20;99.90
35647;DHT22;28680;45.642;13.756;2023-12-28T13:22:08;12.20;99.90
35647;DHT22;28680;45.642;13.756;2023-12-28T13:24:34;12.30;99.90
35647;DHT22;28680;45.642;13.756;2023-12-28T13:26:59;12.30;99.90
35647;DHT22;28680;45.642;13.756;2023-12-28T13:29:26;12.40;99.90
35647;DHT22;28680;45.642;13.756;2023-12-28T13:31:52;12.40;99.90
35647;DHT22;28680;45.642;13.756;2023-12-28T13:34:18;12.40;99.90
35647;DHT22;28680;45.642;13.756;2023-12-28T13:36:48;12.40;99.90
35647;DHT22;28680;45.642;13.756;2023-12-28T13:39:14;12.50;99.90
35647;DHT22;28680;45.642;13.756;2023-12-28T13:41:41;12.50;99.90
35647;DHT22;28680;45.642;13.756;2023-12-28T13:44:07;12.50;99.90
35647;DHT22;28680;45.642;13.756;2023-12-28T13:46:36;12.60;99.90
35647;DHT22;28680;45.642;13.756;2023-12-28T13:49:02;12.60;99.90
35647;DHT22;28680;45.642;13.756;2023-12-28T13:51:33;12.70;99.90
35647;DHT22;28680;45.642;13.756;2023-12-28T13:53:59;12.60;99.90
35647;DHT22;28680;45.642;13.756;2023-12-28T13:56:24;12.60;99.90
35647;DHT22;28680;45.642;13.756;2023-12-28T13:58:50;12.60;99.90
35647;DHT22;28680;45.642;13.756;2023-12-28T14:01:16;12.50;99.90
35647;DHT22;28680;45.642;13.756;2023-12-28T14:03:42;12.50;99.90
35647;DHT22;28680;45.642;13.756;2023-12-28T14:06:11;12.50;99.90
35647;DHT22;28680;45.642;13.756;2023-12-28T14:08:36;12.50;99.90
35647;DHT22;28680;45.642;13.756;2023-12-28T14:11:02;12.40;99.90
35647;DHT22;28680;45.642;13.756;2023-12-28T14:13:29;12.50;99.90
35647;DHT22;28680;45.642;13.756;2023-12-28T14:15:56;12.50;99.90
35647;DHT22;28680;45.642;13.756;2023-12-28T14:18:22;12.50;99.90
35647;DHT22;28680;45.642;13.756;2023-12-28T14:20:48;12.50;99.90
35647;DHT22;28680;45.642;13.756;2023-12-28T14:23:14;12.50;99.90
35647;DHT22;28680;45.642;13.756;2023-12-28T14:25:40;12.50;99.90
35647;DHT22;28680;45.642;13.756;2023-12-28T14:28:06;12.40;99.90
35647;DHT22;28680;45.642;13.756;2023-12-28T14:30:32;12.40;99.90
35647;DHT22;28680;45.642;13.756;2023-12-28T14:32:58;12.40;99.90
35647;DHT22;28680;45.642;13.756;2023-12-28T14:35:25;12.40;99.90
35647;DHT22;28680;45.642;13.756;2023-12-28T14:37:51;12.40;99.90
35647;DHT22;28680;45.642;13.756;2023-12-28T14:40:16;12.30;99.90
35647;DHT22;28680;45.642;13.756;2023-12-28T14:42:42;12.30;99.90
35647;DHT22;28680;45.642;13.756;2023-12-28T14:45:08;12.30;99.90
35647;DHT22;28680;45.642;13.756;2023-12-28T14:47:34;12.30;99.90
35647;DHT22;28680;45.642;13.756;2023-12-28T14:50:01;12.30;99.90
35647;DHT22;28680;45.642;13.756;2023-12-28T14:52:27;12.20;99.90
35647;DHT22;28680;45.642;13.756;2023-12-28T14:54:54;12.20;99.90
35647;DHT22;28680;45.642;13.756;2023-12-28T14:57:21;12.20;99.90
35647;DHT22;28680;45.642;13.756;2023-12-28T14:59:47;12.20;99.90
35647;DHT22;28680;45.642;13.756;2023-12-28T15:02:13;12.20;99.90
35647;DHT22;28680;45.642;13.756;2023-12-28T15:04:39;12.20;99.90
35647;DHT22;28680;45.642;13.756;2023-12-28T15:07:06;12.10;99.90
35647;DHT22;28680;45.642;13.756;2023-12-28T15:09:32;12.10;99.90
35647;DHT22;28680;45.642;13.756;2023-12-28T15:11:59;12.10;99.90
35647;DHT22;28680;45.642;13.756;2023-12-28T15:14:25;12.00;99.90
35647;DHT22;28680;45.642;13.756;2023-12-28T15:16:51;12.00;99.90
35647;DHT22;28680;45.642;13.756;2023-12-28T15:19:17;12.00;99.90
35647;DHT22;28680;45.642;13.756;2023-12-28T15:21:43;12.00;99.90
35647;DHT22;28680;45.642;13.756;2023-12-28T15:24:11;12.00;99.90
35647;DHT22;28680;45.642;13.756;2023-12-28T15:26:37;12.00;99.90
35647;DHT22;28680;45.642;13.756;2023-12-28T15:29:03;12.00;99.90